Aérodrome :
LOGIN :

S'inscrire | Disclaimer

   EN    FR    IT 

 










Légende :    VFR   VFR Marginal   IFR   IFR Intensif   IFR Très Intensif
Visi : 
Plafond : 
>= 8 km
>= 3000ft
5 à 8 km
1000 à 3000 ft
1500m à 5 km
500 à 1000 ft
800 à 1500m
200 à 500 ft
< 800m
< 200 ft
Symboles :   Orages  Brouillard  Fortes neiges  Fortes précipitations  Vent > 20 kt
SIGMETs :   Divers  Orages  Givrage  Turbulence  Onde Orograph.  Cendres Volcan.






- Altitude de l'aérodrome : 1 ft


EGCK - Caernarfon

DERNIER METAR :
  • 282350Z AUTO VRB01KT 9999 NCD 10/09 Q1016

METARs EXPIRÉS :
  • 282320Z AUTO 01003KT 9999 NCD 11/10 Q1015
  • 282250Z AUTO VRB02KT 9999 NCD 11/10 Q1015
  • 282220Z AUTO 07003KT 9999 BKN045/// 12/10 Q1015
  • 282150Z AUTO 36004KT 9999 BKN033/// OVC045/// 12/11 Q1015
  • 282120Z AUTO 02004KT 9999 BKN032/// 12/11 Q1015

TAF TAF EGCK
Valide du 29 à 00h jusqu'au 29 à 09h UTC


282254Z 2900/2909 VRB03KT 9999 SCT045
PROB30
TEMPO 2900/2909 7000



MET'MAP, la Météo Aéronautique d'un coup d'oeil ! - Copyright ORBIFLY Décembre 2007 - Disclaimer

ORBIFLY MET'MAP TEAM :

Programmation & Développement : Alexandra Zaïnal
Sur une idée originale de : Baudouin d'Aumeries
Assistance à la programmation : Marc-Olivier Méhu
Soutien technique & logistique : Manuel Goepfert

Contact : metmap@orbifly.com




SOURCES & CREDITS :

   NOAA